sensor_id;sensor_type;location;lat;lon;timestamp;pressure;altitude;pressure_sealevel;temperature;humidity
73501;BME280;61721;42.206;25.320;2023-01-15T00:02:12;100307.66;;;6.22;90.23
73501;BME280;61721;42.206;25.320;2023-01-15T00:04:42;100320.56;;;6.28;90.23
73501;BME280;61721;42.206;25.320;2023-01-15T00:07:36;100317.91;;;6.28;90.48
73501;BME280;61721;42.206;25.320;2023-01-15T00:10:28;100316.13;;;6.41;90.35
73501;BME280;61721;42.206;25.320;2023-01-15T00:12:55;100319.34;;;6.19;89.71
73501;BME280;61721;42.206;25.320;2023-01-15T00:15:48;100321.84;;;6.08;89.88
73501;BME280;61721;42.206;25.320;2023-01-15T00:18:43;100323.25;;;6.14;90.18
73501;BME280;61721;42.206;25.320;2023-01-15T00:21:41;100320.28;;;6.45;89.59
73501;BME280;61721;42.206;25.320;2023-01-15T00:24:35;100314.16;;;6.57;88.67
73501;BME280;61721;42.206;25.320;2023-01-15T00:27:20;100321.13;;;6.33;89.65
73501;BME280;61721;42.206;25.320;2023-01-15T00:30:30;100325.97;;;6.26;89.47
73501;BME280;61721;42.206;25.320;2023-01-15T00:33:23;100332.75;;;6.18;90.93
73501;BME280;61721;42.206;25.320;2023-01-15T00:36:16;100331.19;;;6.28;89.96
73501;BME280;61721;42.206;25.320;2023-01-15T00:39:11;100323.16;;;6.81;88.20
73501;BME280;61721;42.206;25.320;2023-01-15T00:42:07;100326.19;;;6.90;87.00
73501;BME280;61721;42.206;25.320;2023-01-15T00:44:59;100329.47;;;6.80;87.98
73501;BME280;61721;42.206;25.320;2023-01-15T00:47:34;100318.22;;;6.63;87.94
73501;BME280;61721;42.206;25.320;2023-01-15T00:50:02;100312.53;;;6.81;85.43
73501;BME280;61721;42.206;25.320;2023-01-15T00:52:55;100310.84;;;6.93;85.95
73501;BME280;61721;42.206;25.320;2023-01-15T00:55:48;100308.56;;;6.35;87.38
73501;BME280;61721;42.206;25.320;2023-01-15T00:58:43;100308.41;;;6.51;86.42
73501;BME280;61721;42.206;25.320;2023-01-15T01:01:37;100307.72;;;6.08;89.66
73501;BME280;61721;42.206;25.320;2023-01-15T01:04:30;100303.75;;;6.54;87.83
73501;BME280;61721;42.206;25.320;2023-01-15T01:06:57;100302.09;;;6.39;88.04
73501;BME280;61721;42.206;25.320;2023-01-15T01:09:50;100309.31;;;6.10;88.34
73501;BME280;61721;42.206;25.320;2023-01-15T01:12:43;100314.69;;;6.23;88.22
73501;BME280;61721;42.206;25.320;2023-01-15T01:15:51;100309.03;;;6.00;89.39
73501;BME280;61721;42.206;25.320;2023-01-15T01:18:18;100305.09;;;6.20;89.46
73501;BME280;61721;42.206;25.320;2023-01-15T01:20:46;100306.41;;;6.27;89.26
73501;BME280;61721;42.206;25.320;2023-01-15T01:23:13;100300.44;;;6.24;89.11
73501;BME280;61721;42.206;25.320;2023-01-15T01:26:06;100301.19;;;6.26;88.22
73501;BME280;61721;42.206;25.320;2023-01-15T01:28:35;100301.88;;;6.15;89.48
73501;BME280;61721;42.206;25.320;2023-01-15T01:31:06;100313.44;;;6.28;89.45
73501;BME280;61721;42.206;25.320;2023-01-15T01:33:37;100310.63;;;6.17;89.69
73501;BME280;61721;42.206;25.320;2023-01-15T01:36:31;100305.47;;;6.55;89.01
73501;BME280;61721;42.206;25.320;2023-01-15T01:38:59;100315.59;;;6.09;89.77
73501;BME280;61721;42.206;25.320;2023-01-15T01:41:29;100307.66;;;6.22;88.59
73501;BME280;61721;42.206;25.320;2023-01-15T01:43:58;100299.84;;;6.33;87.82
73501;BME280;61721;42.206;25.320;2023-01-15T01:46:52;100296.66;;;6.67;85.78
73501;BME280;61721;42.206;25.320;2023-01-15T01:49:20;100300.03;;;6.30;88.70
73501;BME280;61721;42.206;25.320;2023-01-15T01:51:51;100296.38;;;6.18;88.23
73501;BME280;61721;42.206;25.320;2023-01-15T01:54:46;100301.94;;;6.28;88.98
73501;BME280;61721;42.206;25.320;2023-01-15T01:57:18;100300.69;;;6.60;86.97
73501;BME280;61721;42.206;25.320;2023-01-15T02:00:13;100308.44;;;6.10;89.03
73501;BME280;61721;42.206;25.320;2023-01-15T02:03:08;100305.56;;;6.27;88.60
73501;BME280;61721;42.206;25.320;2023-01-15T02:06:02;100312.75;;;6.78;85.83
73501;BME280;61721;42.206;25.320;2023-01-15T02:08:57;100314.53;;;6.12;88.10
73501;BME280;61721;42.206;25.320;2023-01-15T02:11:25;100309.84;;;6.29;88.17
73501;BME280;61721;42.206;25.320;2023-01-15T02:14:23;100309.56;;;6.20;88.07
73501;BME280;61721;42.206;25.320;2023-01-15T02:16:56;100311.81;;;6.26;87.93
73501;BME280;61721;42.206;25.320;2023-01-15T02:20:00;100311.38;;;6.19;88.01
73501;BME280;61721;42.206;25.320;2023-01-15T02:22:47;100313.03;;;6.08;88.50
73501;BME280;61721;42.206;25.320;2023-01-15T02:26:03;100307.06;;;6.31;88.14
73501;BME280;61721;42.206;25.320;2023-01-15T02:29:02;100303.66;;;6.29;87.75
73501;BME280;61721;42.206;25.320;2023-01-15T02:32:03;100299.09;;;6.04;89.09
73501;BME280;61721;42.206;25.320;2023-01-15T02:35:03;100302.78;;;6.01;87.86
73501;BME280;61721;42.206;25.320;2023-01-15T02:38:00;100305.94;;;5.94;88.86
73501;BME280;61721;42.206;25.320;2023-01-15T02:40:30;100283.72;;;5.95;89.19
73501;BME280;61721;42.206;25.320;2023-01-15T02:43:24;100298.75;;;6.23;88.09
73501;BME280;61721;42.206;25.320;2023-01-15T02:46:25;100296.69;;;6.14;88.45
73501;BME280;61721;42.206;25.320;2023-01-15T02:49:20;100301.88;;;5.88;89.14
73501;BME280;61721;42.206;25.320;2023-01-15T02:51:52;100292.09;;;5.89;89.21
73501;BME280;61721;42.206;25.320;2023-01-15T02:54:31;100293.69;;;5.91;88.61
73501;BME280;61721;42.206;25.320;2023-01-15T02:57:01;100295.75;;;5.86;89.16
73501;BME280;61721;42.206;25.320;2023-01-15T02:59:57;100292.75;;;5.78;89.82
73501;BME280;61721;42.206;25.320;2023-01-15T03:03:00;100297.47;;;6.01;89.11
73501;BME280;61721;42.206;25.320;2023-01-15T03:06:00;100299.41;;;5.71;90.21
73501;BME280;61721;42.206;25.320;2023-01-15T03:08:31;100295.22;;;5.67;89.56
73501;BME280;61721;42.206;25.320;2023-01-15T03:11:25;100290.78;;;5.68;89.53
73501;BME280;61721;42.206;25.320;2023-01-15T03:14:21;100292.53;;;5.81;88.77
73501;BME280;61721;42.206;25.320;2023-01-15T03:17:20;100286.06;;;5.99;89.20
73501;BME280;61721;42.206;25.320;2023-01-15T03:19:57;100287.91;;;5.99;89.21
73501;BME280;61721;42.206;25.320;2023-01-15T03:22:54;100295.13;;;5.83;89.49
73501;BME280;61721;42.206;25.320;2023-01-15T03:25:50;100291.63;;;5.68;89.04
73501;BME280;61721;42.206;25.320;2023-01-15T03:28:44;100299.94;;;5.76;89.26
73501;BME280;61721;42.206;25.320;2023-01-15T03:31:37;100298.25;;;5.89;89.17
73501;BME280;61721;42.206;25.320;2023-01-15T03:34:37;100299.00;;;5.91;88.59
73501;BME280;61721;42.206;25.320;2023-01-15T03:37:32;100307.91;;;5.76;89.40
73501;BME280;61721;42.206;25.320;2023-01-15T03:40:36;100300.72;;;5.78;89.82
73501;BME280;61721;42.206;25.320;2023-01-15T03:43:36;100293.59;;;6.20;88.79
73501;BME280;61721;42.206;25.320;2023-01-15T03:46:52;100299.88;;;5.92;88.74
73501;BME280;61721;42.206;25.320;2023-01-15T03:49:54;100294.25;;;5.96;89.46
73501;BME280;61721;42.206;25.320;2023-01-15T03:52:56;100290.41;;;5.74;89.59
73501;BME280;61721;42.206;25.320;2023-01-15T03:55:34;100288.59;;;5.88;89.72
73501;BME280;61721;42.206;25.320;2023-01-15T03:58:35;100286.28;;;5.82;90.12
73501;BME280;61721;42.206;25.320;2023-01-15T04:01:09;100284.50;;;5.83;89.95
73501;BME280;61721;42.206;25.320;2023-01-15T04:03:42;100288.09;;;5.82;89.86
73501;BME280;61721;42.206;25.320;2023-01-15T04:06:39;100287.34;;;5.94;89.60
73501;BME280;61721;42.206;25.320;2023-01-15T04:09:38;100289.94;;;5.67;90.81
73501;BME280;61721;42.206;25.320;2023-01-15T04:12:31;100292.75;;;5.78;91.04
73501;BME280;61721;42.206;25.320;2023-01-15T04:15:24;100297.50;;;5.73;90.20
73501;BME280;61721;42.206;25.320;2023-01-15T04:18:17;100309.25;;;5.69;90.51
73501;BME280;61721;42.206;25.320;2023-01-15T04:21:10;100304.69;;;5.85;90.33
73501;BME280;61721;42.206;25.320;2023-01-15T04:23:37;100306.78;;;5.66;90.55
73501;BME280;61721;42.206;25.320;2023-01-15T04:26:39;100308.69;;;5.64;90.88
73501;BME280;61721;42.206;25.320;2023-01-15T04:29:10;100314.00;;;5.78;90.00
73501;BME280;61721;42.206;25.320;2023-01-15T04:31:48;100304.97;;;5.95;89.50
73501;BME280;61721;42.206;25.320;2023-01-15T04:34:42;100314.00;;;5.92;88.92
73501;BME280;61721;42.206;25.320;2023-01-15T04:37:35;100310.78;;;5.87;89.77
73501;BME280;61721;42.206;25.320;2023-01-15T04:40:28;100324.81;;;6.04;89.79
73501;BME280;61721;42.206;25.320;2023-01-15T04:43:40;100326.25;;;6.22;88.29
73501;BME280;61721;42.206;25.320;2023-01-15T04:46:52;100327.19;;;5.94;88.25
73501;BME280;61721;42.206;25.320;2023-01-15T04:49:20;100327.56;;;5.74;89.70
73501;BME280;61721;42.206;25.320;2023-01-15T04:51:47;100322.44;;;5.71;91.03
73501;BME280;61721;42.206;25.320;2023-01-15T04:54:15;100333.06;;;5.99;89.57
73501;BME280;61721;42.206;25.320;2023-01-15T04:57:07;100332.94;;;5.86;89.08
73501;BME280;61721;42.206;25.320;2023-01-15T05:00:02;100336.56;;;5.85;89.11
73501;BME280;61721;42.206;25.320;2023-01-15T05:02:55;100340.66;;;5.91;88.63
73501;BME280;61721;42.206;25.320;2023-01-15T05:05:22;100337.78;;;6.08;88.17
73501;BME280;61721;42.206;25.320;2023-01-15T05:07:50;100348.34;;;5.95;88.47
73501;BME280;61721;42.206;25.320;2023-01-15T05:10:17;100337.34;;;5.73;89.08
73501;BME280;61721;42.206;25.320;2023-01-15T05:12:47;100340.91;;;5.86;89.17
73501;BME280;61721;42.206;25.320;2023-01-15T05:15:43;100347.09;;;6.01;88.86
73501;BME280;61721;42.206;25.320;2023-01-15T05:18:38;100341.09;;;5.69;88.90
73501;BME280;61721;42.206;25.320;2023-01-15T05:21:05;100346.25;;;5.72;88.65
73501;BME280;61721;42.206;25.320;2023-01-15T05:24:00;100345.28;;;6.01;88.18
73501;BME280;61721;42.206;25.320;2023-01-15T05:26:52;100351.00;;;5.67;89.02
73501;BME280;61721;42.206;25.320;2023-01-15T05:29:45;100350.63;;;5.87;89.30
73501;BME280;61721;42.206;25.320;2023-01-15T05:32:40;100349.28;;;5.94;88.99
73501;BME280;61721;42.206;25.320;2023-01-15T05:35:34;100354.88;;;6.04;87.84
73501;BME280;61721;42.206;25.320;2023-01-15T05:38:26;100351.56;;;6.00;88.13
73501;BME280;61721;42.206;25.320;2023-01-15T05:41:21;100348.28;;;6.24;87.46
73501;BME280;61721;42.206;25.320;2023-01-15T05:44:32;100354.38;;;6.12;88.18
73501;BME280;61721;42.206;25.320;2023-01-15T05:47:24;100359.25;;;5.91;87.20
73501;BME280;61721;42.206;25.320;2023-01-15T05:50:20;100353.06;;;5.76;88.27
73501;BME280;61721;42.206;25.320;2023-01-15T05:52:47;100357.44;;;5.91;88.55
73501;BME280;61721;42.206;25.320;2023-01-15T05:55:15;100352.41;;;6.01;88.34
73501;BME280;61721;42.206;25.320;2023-01-15T05:57:42;100355.44;;;5.81;88.98
73501;BME280;61721;42.206;25.320;2023-01-15T06:00:35;100354.28;;;5.85;87.76
73501;BME280;61721;42.206;25.320;2023-01-15T06:03:28;100360.09;;;5.77;88.56
73501;BME280;61721;42.206;25.320;2023-01-15T06:06:00;100352.06;;;5.93;88.34
73501;BME280;61721;42.206;25.320;2023-01-15T06:08:52;100357.81;;;5.85;87.57
73501;BME280;61721;42.206;25.320;2023-01-15T06:11:21;100354.19;;;5.86;87.97
73501;BME280;61721;42.206;25.320;2023-01-15T06:14:14;100355.94;;;5.73;88.30
73501;BME280;61721;42.206;25.320;2023-01-15T06:16:41;100355.53;;;5.65;88.19
73501;BME280;61721;42.206;25.320;2023-01-15T06:19:34;100353.09;;;5.62;88.25
73501;BME280;61721;42.206;25.320;2023-01-15T06:22:36;100348.41;;;5.66;88.36
73501;BME280;61721;42.206;25.320;2023-01-15T06:25:32;100341.09;;;5.69;87.92
73501;BME280;61721;42.206;25.320;2023-01-15T06:28:27;100351.44;;;5.59;88.23
73501;BME280;61721;42.206;25.320;2023-01-15T06:31:21;100363.50;;;5.65;88.71
73501;BME280;61721;42.206;25.320;2023-01-15T06:33:49;100356.00;;;5.86;87.85
73501;BME280;61721;42.206;25.320;2023-01-15T06:36:54;100357.06;;;5.55;88.21
73501;BME280;61721;42.206;25.320;2023-01-15T06:39:24;100353.28;;;5.73;88.29
73501;BME280;61721;42.206;25.320;2023-01-15T06:42:16;100347.47;;;5.67;88.14
73501;BME280;61721;42.206;25.320;2023-01-15T06:45:27;100357.03;;;5.69;88.59
73501;BME280;61721;42.206;25.320;2023-01-15T06:48:39;100354.97;;;5.60;88.99
73501;BME280;61721;42.206;25.320;2023-01-15T06:51:32;100365.50;;;5.62;88.80
73501;BME280;61721;42.206;25.320;2023-01-15T06:54:00;100365.50;;;5.90;88.88
73501;BME280;61721;42.206;25.320;2023-01-15T06:56:54;100360.47;;;5.71;88.04
73501;BME280;61721;42.206;25.320;2023-01-15T06:59:47;100363.13;;;5.99;87.28
73501;BME280;61721;42.206;25.320;2023-01-15T07:02:40;100360.94;;;5.78;87.72
73501;BME280;61721;42.206;25.320;2023-01-15T07:05:08;100361.81;;;5.78;88.50
73501;BME280;61721;42.206;25.320;2023-01-15T07:07:35;100365.56;;;5.74;88.13
73501;BME280;61721;42.206;25.320;2023-01-15T07:10:05;100363.91;;;5.87;86.92
73501;BME280;61721;42.206;25.320;2023-01-15T07:12:35;100368.63;;;5.68;88.19
73501;BME280;61721;42.206;25.320;2023-01-15T07:15:28;100368.06;;;5.91;88.06
73501;BME280;61721;42.206;25.320;2023-01-15T07:18:22;100363.69;;;6.05;87.58
73501;BME280;61721;42.206;25.320;2023-01-15T07:21:17;100369.41;;;5.98;86.95
73501;BME280;61721;42.206;25.320;2023-01-15T07:24:12;100373.19;;;6.09;86.81
73501;BME280;61721;42.206;25.320;2023-01-15T07:27:04;100364.09;;;5.98;87.09
73501;BME280;61721;42.206;25.320;2023-01-15T07:29:59;100368.34;;;6.01;87.34
73501;BME280;61721;42.206;25.320;2023-01-15T07:32:29;100366.06;;;5.81;88.12
73501;BME280;61721;42.206;25.320;2023-01-15T07:35:22;100369.69;;;6.08;87.32
73501;BME280;61721;42.206;25.320;2023-01-15T07:38:15;100367.31;;;6.04;87.58
73501;BME280;61721;42.206;25.320;2023-01-15T07:41:08;100373.19;;;5.94;87.34
73501;BME280;61721;42.206;25.320;2023-01-15T07:43:53;100372.75;;;5.88;88.70
73501;BME280;61721;42.206;25.320;2023-01-15T07:47:12;100376.41;;;5.99;88.25
73501;BME280;61721;42.206;25.320;2023-01-15T07:50:26;100383.22;;;6.18;87.71
73501;BME280;61721;42.206;25.320;2023-01-15T07:53:21;100386.00;;;6.02;88.56
73501;BME280;61721;42.206;25.320;2023-01-15T07:56:14;100377.69;;;5.94;88.08
73501;BME280;61721;42.206;25.320;2023-01-15T07:59:07;100380.41;;;5.78;88.72
73501;BME280;61721;42.206;25.320;2023-01-15T08:01:34;100388.38;;;6.07;88.19
73501;BME280;61721;42.206;25.320;2023-01-15T08:04:29;100385.72;;;5.92;88.96
73501;BME280;61721;42.206;25.320;2023-01-15T08:07:21;100382.41;;;6.03;89.10
73501;BME280;61721;42.206;25.320;2023-01-15T08:10:15;100387.97;;;5.84;89.02
73501;BME280;61721;42.206;25.320;2023-01-15T08:13:10;100390.63;;;6.13;87.87
73501;BME280;61721;42.206;25.320;2023-01-15T08:16:02;100393.47;;;6.10;87.96
73501;BME280;61721;42.206;25.320;2023-01-15T08:18:29;100386.84;;;6.03;88.02
73501;BME280;61721;42.206;25.320;2023-01-15T08:20:58;100393.38;;;5.83;87.79
73501;BME280;61721;42.206;25.320;2023-01-15T08:23:25;100399.72;;;6.23;86.42
73501;BME280;61721;42.206;25.320;2023-01-15T08:25:53;100402.22;;;6.12;86.75
73501;BME280;61721;42.206;25.320;2023-01-15T08:28:22;100400.84;;;6.33;87.67
73501;BME280;61721;42.206;25.320;2023-01-15T08:31:17;100409.22;;;6.27;86.83
73501;BME280;61721;42.206;25.320;2023-01-15T08:33:45;100399.53;;;6.26;87.35
73501;BME280;61721;42.206;25.320;2023-01-15T08:36:15;100404.41;;;6.19;86.14
73501;BME280;61721;42.206;25.320;2023-01-15T08:39:09;100404.59;;;6.02;86.69
73501;BME280;61721;42.206;25.320;2023-01-15T08:41:37;100398.06;;;5.93;86.36
73501;BME280;61721;42.206;25.320;2023-01-15T08:44:11;100397.63;;;5.85;87.42
73501;BME280;61721;42.206;25.320;2023-01-15T08:47:08;100404.19;;;5.66;87.84
73501;BME280;61721;42.206;25.320;2023-01-15T08:49:38;100399.94;;;5.77;87.44
73501;BME280;61721;42.206;25.320;2023-01-15T08:52:34;100413.34;;;6.04;88.50
73501;BME280;61721;42.206;25.320;2023-01-15T08:55:10;100412.53;;;6.16;87.59
73501;BME280;61721;42.206;25.320;2023-01-15T08:58:04;100398.81;;;5.95;88.48
73501;BME280;61721;42.206;25.320;2023-01-15T09:01:03;100398.59;;;5.84;88.59
73501;BME280;61721;42.206;25.320;2023-01-15T09:03:55;100399.75;;;6.09;88.13
73501;BME280;61721;42.206;25.320;2023-01-15T09:06:49;100407.53;;;5.83;88.94
73501;BME280;61721;42.206;25.320;2023-01-15T09:09:44;100395.75;;;6.16;88.03
73501;BME280;61721;42.206;25.320;2023-01-15T09:12:37;100393.63;;;5.94;88.33
73501;BME280;61721;42.206;25.320;2023-01-15T09:15:32;100380.47;;;6.05;88.58
73501;BME280;61721;42.206;25.320;2023-01-15T09:18:25;100382.41;;;6.03;89.41
73501;BME280;61721;42.206;25.320;2023-01-15T09:20:57;100377.72;;;6.21;88.86
73501;BME280;61721;42.206;25.320;2023-01-15T09:23:50;100372.81;;;6.00;89.08
73501;BME280;61721;42.206;25.320;2023-01-15T09:26:46;100364.28;;;5.95;89.40
73501;BME280;61721;42.206;25.320;2023-01-15T09:29:39;100361.81;;;5.92;88.51
73501;BME280;61721;42.206;25.320;2023-01-15T09:32:31;100353.56;;;5.83;88.67
73501;BME280;61721;42.206;25.320;2023-01-15T09:35:28;100358.56;;;6.01;89.03
73501;BME280;61721;42.206;25.320;2023-01-15T09:37:56;100357.84;;;6.26;87.55
73501;BME280;61721;42.206;25.320;2023-01-15T09:40:51;100364.06;;;6.13;85.91
73501;BME280;61721;42.206;25.320;2023-01-15T09:43:53;100346.78;;;6.06;87.61
73501;BME280;61721;42.206;25.320;2023-01-15T09:47:01;100351.75;;;5.97;88.04
73501;BME280;61721;42.206;25.320;2023-01-15T09:49:49;100345.72;;;6.22;87.09
73501;BME280;61721;42.206;25.320;2023-01-15T09:52:25;100344.47;;;6.28;87.26
73501;BME280;61721;42.206;25.320;2023-01-15T09:55:03;100342.16;;;6.36;86.38
73501;BME280;61721;42.206;25.320;2023-01-15T09:58:02;100337.09;;;6.45;86.41
73501;BME280;61721;42.206;25.320;2023-01-15T10:00:37;100329.19;;;6.71;85.02
73501;BME280;61721;42.206;25.320;2023-01-15T10:03:34;100338.75;;;6.07;85.17
73501;BME280;61721;42.206;25.320;2023-01-15T10:06:20;100333.84;;;6.28;86.24
73501;BME280;61721;42.206;25.320;2023-01-15T10:09:19;100321.19;;;6.58;85.73
73501;BME280;61721;42.206;25.320;2023-01-15T10:12:17;100323.22;;;6.28;85.39
73501;BME280;61721;42.206;25.320;2023-01-15T10:15:23;100317.13;;;6.53;84.43
73501;BME280;61721;42.206;25.320;2023-01-15T10:18:23;100321.16;;;6.19;85.61
73501;BME280;61721;42.206;25.320;2023-01-15T10:21:18;100301.75;;;6.31;85.63
73501;BME280;61721;42.206;25.320;2023-01-15T10:24:29;100295.22;;;6.49;86.27
73501;BME280;61721;42.206;25.320;2023-01-15T10:27:29;100296.97;;;6.36;86.34
73501;BME280;61721;42.206;25.320;2023-01-15T10:30:28;100281.22;;;6.72;86.60
73501;BME280;61721;42.206;25.320;2023-01-15T10:33:52;100290.59;;;6.65;85.11
73501;BME280;61721;42.206;25.320;2023-01-15T10:36:29;100287.94;;;6.65;85.43
73501;BME280;61721;42.206;25.320;2023-01-15T10:39:03;100273.56;;;6.68;85.71
73501;BME280;61721;42.206;25.320;2023-01-15T10:42:08;100277.88;;;6.56;84.15
73501;BME280;61721;42.206;25.320;2023-01-15T10:44:40;100279.69;;;6.43;84.47
73501;BME280;61721;42.206;25.320;2023-01-15T10:47:14;100264.47;;;6.45;84.45
73501;BME280;61721;42.206;25.320;2023-01-15T10:49:48;100271.84;;;6.67;83.78
73501;BME280;61721;42.206;25.320;2023-01-15T10:52:23;100268.78;;;6.60;83.47
73501;BME280;61721;42.206;25.320;2023-01-15T10:55:02;100258.09;;;6.48;84.03
73501;BME280;61721;42.206;25.320;2023-01-15T10:57:43;100261.63;;;6.48;83.84
73501;BME280;61721;42.206;25.320;2023-01-15T11:00:16;100257.16;;;6.61;83.54
73501;BME280;61721;42.206;25.320;2023-01-15T11:02:49;100242.31;;;7.09;83.46
73501;BME280;61721;42.206;25.320;2023-01-15T11:05:24;100244.22;;;7.20;81.59
73501;BME280;61721;42.206;25.320;2023-01-15T11:07:53;100229.22;;;6.94;82.96
73501;BME280;61721;42.206;25.320;2023-01-15T11:10:22;100227.22;;;6.84;83.99
73501;BME280;61721;42.206;25.320;2023-01-15T11:12:51;100215.47;;;6.87;82.36
73501;BME280;61721;42.206;25.320;2023-01-15T11:15:37;100220.38;;;7.31;81.64
73501;BME280;61721;42.206;25.320;2023-01-15T11:18:25;100217.38;;;7.36;81.53
73501;BME280;61721;42.206;25.320;2023-01-15T11:21:15;100206.03;;;7.57;79.76
73501;BME280;61721;42.206;25.320;2023-01-15T11:23:44;100202.63;;;6.94;81.03
73501;BME280;61721;42.206;25.320;2023-01-15T11:26:17;100206.31;;;7.16;80.11
73501;BME280;61721;42.206;25.320;2023-01-15T11:28:46;100206.44;;;7.15;80.69
73501;BME280;61721;42.206;25.320;2023-01-15T11:31:14;100193.75;;;7.31;81.78
73501;BME280;61721;42.206;25.320;2023-01-15T11:33:43;100186.56;;;6.95;81.51
73501;BME280;61721;42.206;25.320;2023-01-15T11:36:21;100193.69;;;6.95;82.58
73501;BME280;61721;42.206;25.320;2023-01-15T11:38:50;100182.06;;;7.08;82.37
73501;BME280;61721;42.206;25.320;2023-01-15T11:41:20;100184.50;;;7.11;81.53
73501;BME280;61721;42.206;25.320;2023-01-15T11:43:55;100181.59;;;7.27;82.20
73501;BME280;61721;42.206;25.320;2023-01-15T11:46:40;100180.59;;;7.04;81.99
73501;BME280;61721;42.206;25.320;2023-01-15T11:49:25;100187.28;;;7.10;82.30
73501;BME280;61721;42.206;25.320;2023-01-15T11:52:15;100176.53;;;6.99;81.87
73501;BME280;61721;42.206;25.320;2023-01-15T11:54:45;100178.03;;;7.03;82.15
73501;BME280;61721;42.206;25.320;2023-01-15T11:57:23;100168.28;;;7.40;80.30
73501;BME280;61721;42.206;25.320;2023-01-15T11:59:52;100171.28;;;7.35;80.23
73501;BME280;61721;42.206;25.320;2023-01-15T12:02:28;100175.09;;;7.67;79.44
73501;BME280;61721;42.206;25.320;2023-01-15T12:05:00;100163.91;;;7.62;80.39
73501;BME280;61721;42.206;25.320;2023-01-15T12:07:30;100164.16;;;7.23;81.51
73501;BME280;61721;42.206;25.320;2023-01-15T12:10:08;100162.69;;;7.79;80.70
73501;BME280;61721;42.206;25.320;2023-01-15T12:12:48;100163.09;;;7.25;80.49
73501;BME280;61721;42.206;25.320;2023-01-15T12:15:28;100161.84;;;8.02;78.38
73501;BME280;61721;42.206;25.320;2023-01-15T12:18:24;100154.34;;;7.36;80.57
73501;BME280;61721;42.206;25.320;2023-01-15T12:21:02;100151.84;;;7.93;78.61
73501;BME280;61721;42.206;25.320;2023-01-15T12:23:48;100144.94;;;7.67;79.95
73501;BME280;61721;42.206;25.320;2023-01-15T12:26:24;100148.78;;;7.26;80.84
73501;BME280;61721;42.206;25.320;2023-01-15T12:28:58;100137.84;;;7.31;80.14
73501;BME280;61721;42.206;25.320;2023-01-15T12:31:32;100143.31;;;8.01;79.89
73501;BME280;61721;42.206;25.320;2023-01-15T12:34:07;100139.97;;;8.21;78.06
73501;BME280;61721;42.206;25.320;2023-01-15T12:36:44;100140.44;;;7.56;78.65
73501;BME280;61721;42.206;25.320;2023-01-15T12:39:19;100139.06;;;7.74;78.85
73501;BME280;61721;42.206;25.320;2023-01-15T12:41:52;100141.28;;;7.81;78.45
73501;BME280;61721;42.206;25.320;2023-01-15T12:44:40;100135.09;;;7.56;80.11
73501;BME280;61721;42.206;25.320;2023-01-15T12:47:33;100138.63;;;7.20;80.39
73501;BME280;61721;42.206;25.320;2023-01-15T12:50:22;100137.31;;;7.26;81.12
73501;BME280;61721;42.206;25.320;2023-01-15T12:52:57;100127.81;;;7.58;79.65
73501;BME280;61721;42.206;25.320;2023-01-15T12:55:30;100131.41;;;7.46;79.74
73501;BME280;61721;42.206;25.320;2023-01-15T12:58:00;100129.84;;;7.31;80.71
73501;BME280;61721;42.206;25.320;2023-01-15T13:00:33;100128.75;;;7.46;80.23
73501;BME280;61721;42.206;25.320;2023-01-15T13:03:14;100125.78;;;7.38;79.73
73501;BME280;61721;42.206;25.320;2023-01-15T13:05:57;100123.69;;;7.54;78.33
73501;BME280;61721;42.206;25.320;2023-01-15T13:08:30;100123.63;;;7.43;80.08
73501;BME280;61721;42.206;25.320;2023-01-15T13:11:02;100128.00;;;7.31;79.60
73501;BME280;61721;42.206;25.320;2023-01-15T13:13:34;100124.22;;;7.23;80.18
73501;BME280;61721;42.206;25.320;2023-01-15T13:16:04;100119.22;;;7.55;80.89
73501;BME280;61721;42.206;25.320;2023-01-15T13:18:45;100116.28;;;7.70;79.29
73501;BME280;61721;42.206;25.320;2023-01-15T13:21:19;100110.31;;;7.43;80.48
73501;BME280;61721;42.206;25.320;2023-01-15T13:24:11;100112.66;;;8.06;78.55
73501;BME280;61721;42.206;25.320;2023-01-15T13:29:51;100109.13;;;8.30;75.61
73501;BME280;61721;42.206;25.320;2023-01-15T13:32:23;100109.13;;;8.30;76.14
73501;BME280;61721;42.206;25.320;2023-01-15T13:34:55;100110.94;;;7.70;79.53
73501;BME280;61721;42.206;25.320;2023-01-15T13:37:27;100111.22;;;8.37;77.04
73501;BME280;61721;42.206;25.320;2023-01-15T13:39:58;100102.91;;;8.29;76.66
73501;BME280;61721;42.206;25.320;2023-01-15T13:42:30;100110.88;;;7.83;77.72
73501;BME280;61721;42.206;25.320;2023-01-15T13:45:00;100099.72;;;7.78;79.19
73501;BME280;61721;42.206;25.320;2023-01-15T13:47:30;100100.59;;;7.90;79.60
73501;BME280;61721;42.206;25.320;2023-01-15T13:50:02;100087.19;;;7.67;80.17
73501;BME280;61721;42.206;25.320;2023-01-15T13:52:32;100091.38;;;7.59;78.71
73501;BME280;61721;42.206;25.320;2023-01-15T13:55:06;100098.13;;;7.76;78.37
73501;BME280;61721;42.206;25.320;2023-01-15T13:57:39;100087.63;;;7.38;79.37
73501;BME280;61721;42.206;25.320;2023-01-15T14:00:35;100094.13;;;7.10;79.40
73501;BME280;61721;42.206;25.320;2023-01-15T14:03:31;100090.88;;;7.30;79.88
73501;BME280;61721;42.206;25.320;2023-01-15T14:06:35;100083.63;;;7.32;79.31
73501;BME280;61721;42.206;25.320;2023-01-15T14:09:03;100083.88;;;7.16;79.43
73501;BME280;61721;42.206;25.320;2023-01-15T14:11:37;100083.16;;;7.14;78.91
73501;BME280;61721;42.206;25.320;2023-01-15T14:14:48;100083.63;;;7.32;79.97
73501;BME280;61721;42.206;25.320;2023-01-15T14:17:46;100084.38;;;7.34;79.21
73501;BME280;61721;42.206;25.320;2023-01-15T14:20:37;100079.88;;;7.11;79.90
73501;BME280;61721;42.206;25.320;2023-01-15T14:23:31;100083.44;;;7.22;79.34
73501;BME280;61721;42.206;25.320;2023-01-15T14:26:44;100089.63;;;7.23;80.28
73501;BME280;61721;42.206;25.320;2023-01-15T14:30:08;100082.72;;;7.44;79.87